sensor_id;sensor_type;location;lat;lon;timestamp;P1;durP1;ratioP1;P2;durP2;ratioP2
46282;SDS011;32017;43.700;11.820;2023-05-10T00:00:12;6.43;;;6.13;;
46282;SDS011;32017;43.700;11.820;2023-05-10T00:02:33;5.68;;;5.50;;
46282;SDS011;32017;43.700;11.820;2023-05-10T00:04:54;7.13;;;5.47;;
46282;SDS011;32017;43.700;11.820;2023-05-10T00:07:14;7.18;;;6.75;;
46282;SDS011;32017;43.700;11.820;2023-05-10T00:09:36;5.57;;;5.37;;
46282;SDS011;32017;43.700;11.820;2023-05-10T00:11:56;7.10;;;6.70;;
46282;SDS011;32017;43.700;11.820;2023-05-10T00:14:17;6.20;;;5.88;;
46282;SDS011;32017;43.700;11.820;2023-05-10T00:16:38;5.75;;;5.65;;
46282;SDS011;32017;43.700;11.820;2023-05-10T00:18:58;5.40;;;5.30;;
46282;SDS011;32017;43.700;11.820;2023-05-10T00:21:18;5.78;;;5.68;;
46282;SDS011;32017;43.700;11.820;2023-05-10T00:23:38;4.63;;;4.32;;
46282;SDS011;32017;43.700;11.820;2023-05-10T00:25:58;4.72;;;4.60;;
46282;SDS011;32017;43.700;11.820;2023-05-10T00:28:18;5.55;;;5.25;;
46282;SDS011;32017;43.700;11.820;2023-05-10T00:30:38;5.65;;;5.20;;
46282;SDS011;32017;43.700;11.820;2023-05-10T00:32:58;5.40;;;5.10;;
46282;SDS011;32017;43.700;11.820;2023-05-10T00:35:19;5.60;;;5.35;;
46282;SDS011;32017;43.700;11.820;2023-05-10T00:37:40;4.32;;;4.22;;
46282;SDS011;32017;43.700;11.820;2023-05-10T00:40:00;5.78;;;5.25;;
46282;SDS011;32017;43.700;11.820;2023-05-10T00:42:21;5.20;;;4.82;;
46282;SDS011;32017;43.700;11.820;2023-05-10T00:44:41;6.15;;;5.78;;
46282;SDS011;32017;43.700;11.820;2023-05-10T00:47:01;5.65;;;5.30;;
46282;SDS011;32017;43.700;11.820;2023-05-10T00:49:21;4.32;;;4.03;;
46282;SDS011;32017;43.700;11.820;2023-05-10T00:51:42;5.13;;;4.90;;
46282;SDS011;32017;43.700;11.820;2023-05-10T00:54:03;4.50;;;4.35;;
46282;SDS011;32017;43.700;11.820;2023-05-10T00:56:25;4.65;;;4.55;;
46282;SDS011;32017;43.700;11.820;2023-05-10T00:58:45;3.05;;;2.97;;
46282;SDS011;32017;43.700;11.820;2023-05-10T01:01:05;4.50;;;4.40;;
46282;SDS011;32017;43.700;11.820;2023-05-10T01:03:26;4.07;;;3.90;;
46282;SDS011;32017;43.700;11.820;2023-05-10T01:05:46;4.18;;;4.07;;
46282;SDS011;32017;43.700;11.820;2023-05-10T01:08:06;4.15;;;4.05;;
46282;SDS011;32017;43.700;11.820;2023-05-10T01:10:28;3.70;;;3.50;;
46282;SDS011;32017;43.700;11.820;2023-05-10T01:12:48;203.52;;;13.20;;
46282;SDS011;32017;43.700;11.820;2023-05-10T01:15:08;3.25;;;3.08;;
46282;SDS011;32017;43.700;11.820;2023-05-10T01:17:30;2.83;;;2.78;;
46282;SDS011;32017;43.700;11.820;2023-05-10T01:19:51;1.90;;;1.90;;
46282;SDS011;32017;43.700;11.820;2023-05-10T01:25:32;2.78;;;1.90;;
46282;SDS011;32017;43.700;11.820;2023-05-10T01:33:13;2.28;;;2.15;;
46282;SDS011;32017;43.700;11.820;2023-05-10T01:35:42;3.50;;;2.80;;
46282;SDS011;32017;43.700;11.820;2023-05-10T01:40:29;2.35;;;2.20;;
46282;SDS011;32017;43.700;11.820;2023-05-10T01:42:54;1.90;;;1.90;;
46282;SDS011;32017;43.700;11.820;2023-05-10T01:45:28;2.33;;;2.30;;
46282;SDS011;32017;43.700;11.820;2023-05-10T01:47:54;1.70;;;1.70;;
46282;SDS011;32017;43.700;11.820;2023-05-10T01:50:20;4.05;;;1.88;;
46282;SDS011;32017;43.700;11.820;2023-05-10T01:52:42;2.50;;;2.30;;
46282;SDS011;32017;43.700;11.820;2023-05-10T01:55:05;1.90;;;1.77;;
46282;SDS011;32017;43.700;11.820;2023-05-10T01:57:26;2.00;;;2.00;;
46282;SDS011;32017;43.700;11.820;2023-05-10T01:59:47;1.60;;;1.60;;
46282;SDS011;32017;43.700;11.820;2023-05-10T02:02:09;1.52;;;1.50;;
46282;SDS011;32017;43.700;11.820;2023-05-10T02:04:31;126.20;;;7.20;;
46282;SDS011;32017;43.700;11.820;2023-05-10T02:06:53;13.15;;;2.00;;
46282;SDS011;32017;43.700;11.820;2023-05-10T02:09:14;4.32;;;1.63;;
46282;SDS011;32017;43.700;11.820;2023-05-10T02:11:34;2.70;;;2.70;;
46282;SDS011;32017;43.700;11.820;2023-05-10T02:13:57;2.53;;;2.22;;
46282;SDS011;32017;43.700;11.820;2023-05-10T02:16:18;2.75;;;2.75;;
46282;SDS011;32017;43.700;11.820;2023-05-10T02:18:41;3.10;;;2.90;;
46282;SDS011;32017;43.700;11.820;2023-05-10T02:21:02;3.08;;;3.08;;
46282;SDS011;32017;43.700;11.820;2023-05-10T02:23:23;3.88;;;3.67;;
46282;SDS011;32017;43.700;11.820;2023-05-10T02:25:43;2.95;;;2.85;;
46282;SDS011;32017;43.700;11.820;2023-05-10T02:28:05;3.53;;;3.28;;
46282;SDS011;32017;43.700;11.820;2023-05-10T02:30:26;4.15;;;4.05;;
46282;SDS011;32017;43.700;11.820;2023-05-10T02:32:47;5.88;;;4.07;;
46282;SDS011;32017;43.700;11.820;2023-05-10T02:35:08;4.95;;;4.68;;
46282;SDS011;32017;43.700;11.820;2023-05-10T02:37:29;5.40;;;5.20;;
46282;SDS011;32017;43.700;11.820;2023-05-10T02:39:50;4.53;;;4.32;;
46282;SDS011;32017;43.700;11.820;2023-05-10T02:42:12;4.32;;;4.22;;
46282;SDS011;32017;43.700;11.820;2023-05-10T02:44:34;5.20;;;4.97;;
46282;SDS011;32017;43.700;11.820;2023-05-10T02:46:56;4.75;;;4.65;;
46282;SDS011;32017;43.700;11.820;2023-05-10T02:49:17;5.07;;;4.85;;
46282;SDS011;32017;43.700;11.820;2023-05-10T02:51:40;3.67;;;3.58;;
46282;SDS011;32017;43.700;11.820;2023-05-10T02:54:04;4.47;;;4.38;;
46282;SDS011;32017;43.700;11.820;2023-05-10T02:56:31;4.63;;;4.53;;
46282;SDS011;32017;43.700;11.820;2023-05-10T02:58:52;5.03;;;4.93;;
46282;SDS011;32017;43.700;11.820;2023-05-10T03:01:12;5.90;;;5.70;;
46282;SDS011;32017;43.700;11.820;2023-05-10T03:03:33;4.53;;;4.40;;
46282;SDS011;32017;43.700;11.820;2023-05-10T03:05:53;6.05;;;5.85;;
46282;SDS011;32017;43.700;11.820;2023-05-10T03:08:15;6.60;;;6.40;;
46282;SDS011;32017;43.700;11.820;2023-05-10T03:10:39;5.75;;;5.65;;
46282;SDS011;32017;43.700;11.820;2023-05-10T03:13:10;6.05;;;5.78;;
46282;SDS011;32017;43.700;11.820;2023-05-10T03:15:37;5.32;;;5.22;;
46282;SDS011;32017;43.700;11.820;2023-05-10T03:20:23;7.45;;;6.78;;
46282;SDS011;32017;43.700;11.820;2023-05-10T03:22:45;6.68;;;6.43;;
46282;SDS011;32017;43.700;11.820;2023-05-10T03:25:08;6.57;;;6.13;;
46282;SDS011;32017;43.700;11.820;2023-05-10T03:27:30;5.93;;;5.82;;
46282;SDS011;32017;43.700;11.820;2023-05-10T03:29:52;6.25;;;5.95;;
46282;SDS011;32017;43.700;11.820;2023-05-10T03:32:12;6.47;;;6.03;;
46282;SDS011;32017;43.700;11.820;2023-05-10T03:34:32;7.28;;;7.07;;
46282;SDS011;32017;43.700;11.820;2023-05-10T03:36:53;6.28;;;6.10;;
46282;SDS011;32017;43.700;11.820;2023-05-10T03:39:13;6.88;;;6.63;;
46282;SDS011;32017;43.700;11.820;2023-05-10T03:41:33;7.10;;;6.80;;
46282;SDS011;32017;43.700;11.820;2023-05-10T03:43:53;7.07;;;6.88;;
46282;SDS011;32017;43.700;11.820;2023-05-10T03:46:13;6.88;;;6.68;;
46282;SDS011;32017;43.700;11.820;2023-05-10T03:48:33;7.18;;;6.97;;
46282;SDS011;32017;43.700;11.820;2023-05-10T03:50:54;7.43;;;7.05;;
46282;SDS011;32017;43.700;11.820;2023-05-10T03:53:14;6.03;;;5.93;;
46282;SDS011;32017;43.700;11.820;2023-05-10T03:55:34;7.70;;;7.30;;
46282;SDS011;32017;43.700;11.820;2023-05-10T03:57:55;7.32;;;6.93;;
46282;SDS011;32017;43.700;11.820;2023-05-10T04:00:15;6.00;;;5.90;;
46282;SDS011;32017;43.700;11.820;2023-05-10T04:02:36;6.18;;;5.97;;
46282;SDS011;32017;43.700;11.820;2023-05-10T04:04:57;6.38;;;6.18;;
46282;SDS011;32017;43.700;11.820;2023-05-10T04:07:18;7.22;;;7.03;;
46282;SDS011;32017;43.700;11.820;2023-05-10T04:09:38;6.55;;;6.28;;
46282;SDS011;32017;43.700;11.820;2023-05-10T04:11:58;7.00;;;6.80;;
46282;SDS011;32017;43.700;11.820;2023-05-10T04:14:21;7.18;;;6.88;;
46282;SDS011;32017;43.700;11.820;2023-05-10T04:16:41;6.50;;;6.22;;
46282;SDS011;32017;43.700;11.820;2023-05-10T04:19:01;6.90;;;6.80;;
46282;SDS011;32017;43.700;11.820;2023-05-10T04:21:22;7.28;;;7.18;;
46282;SDS011;32017;43.700;11.820;2023-05-10T04:23:42;6.75;;;6.50;;
46282;SDS011;32017;43.700;11.820;2023-05-10T04:26:02;9.13;;;8.20;;
46282;SDS011;32017;43.700;11.820;2023-05-10T04:28:22;6.95;;;6.65;;
46282;SDS011;32017;43.700;11.820;2023-05-10T04:30:42;8.30;;;8.10;;
46282;SDS011;32017;43.700;11.820;2023-05-10T04:33:02;7.57;;;7.28;;
46282;SDS011;32017;43.700;11.820;2023-05-10T04:35:23;8.00;;;7.55;;
46282;SDS011;32017;43.700;11.820;2023-05-10T04:37:43;8.23;;;8.00;;
46282;SDS011;32017;43.700;11.820;2023-05-10T04:40:04;7.82;;;7.53;;
46282;SDS011;32017;43.700;11.820;2023-05-10T04:42:24;7.20;;;7.00;;
46282;SDS011;32017;43.700;11.820;2023-05-10T04:44:45;7.28;;;7.10;;
46282;SDS011;32017;43.700;11.820;2023-05-10T04:47:05;9.73;;;9.25;;
46282;SDS011;32017;43.700;11.820;2023-05-10T04:49:25;9.35;;;9.15;;
46282;SDS011;32017;43.700;11.820;2023-05-10T04:51:45;9.63;;;9.32;;
46282;SDS011;32017;43.700;11.820;2023-05-10T04:54:06;9.00;;;8.80;;
46282;SDS011;32017;43.700;11.820;2023-05-10T04:56:26;9.50;;;9.20;;
46282;SDS011;32017;43.700;11.820;2023-05-10T04:58:46;9.68;;;9.27;;
46282;SDS011;32017;43.700;11.820;2023-05-10T05:01:07;9.02;;;8.80;;
46282;SDS011;32017;43.700;11.820;2023-05-10T05:03:27;9.55;;;9.35;;
46282;SDS011;32017;43.700;11.820;2023-05-10T05:05:47;11.45;;;10.55;;
46282;SDS011;32017;43.700;11.820;2023-05-10T05:08:07;10.23;;;9.82;;
46282;SDS011;32017;43.700;11.820;2023-05-10T05:10:28;9.90;;;9.40;;
46282;SDS011;32017;43.700;11.820;2023-05-10T05:12:49;9.18;;;8.70;;
46282;SDS011;32017;43.700;11.820;2023-05-10T05:15:09;10.10;;;9.77;;
46282;SDS011;32017;43.700;11.820;2023-05-10T05:17:30;9.93;;;9.48;;
46282;SDS011;32017;43.700;11.820;2023-05-10T05:19:50;9.57;;;9.23;;
46282;SDS011;32017;43.700;11.820;2023-05-10T05:22:10;8.55;;;8.35;;
46282;SDS011;32017;43.700;11.820;2023-05-10T05:24:34;10.45;;;9.85;;
46282;SDS011;32017;43.700;11.820;2023-05-10T05:26:55;11.88;;;11.05;;
46282;SDS011;32017;43.700;11.820;2023-05-10T05:29:15;11.63;;;10.88;;
46282;SDS011;32017;43.700;11.820;2023-05-10T05:31:35;11.75;;;11.07;;
46282;SDS011;32017;43.700;11.820;2023-05-10T05:33:56;11.77;;;11.05;;
46282;SDS011;32017;43.700;11.820;2023-05-10T05:36:16;9.55;;;9.18;;
46282;SDS011;32017;43.700;11.820;2023-05-10T05:38:36;9.75;;;9.32;;
46282;SDS011;32017;43.700;11.820;2023-05-10T05:40:56;10.85;;;10.38;;
46282;SDS011;32017;43.700;11.820;2023-05-10T05:43:17;12.07;;;11.57;;
46282;SDS011;32017;43.700;11.820;2023-05-10T05:45:37;10.30;;;9.70;;
46282;SDS011;32017;43.700;11.820;2023-05-10T05:47:57;10.30;;;9.90;;
46282;SDS011;32017;43.700;11.820;2023-05-10T05:50:18;10.70;;;10.07;;
46282;SDS011;32017;43.700;11.820;2023-05-10T05:52:39;9.82;;;9.43;;
46282;SDS011;32017;43.700;11.820;2023-05-10T05:54:59;9.98;;;9.52;;
46282;SDS011;32017;43.700;11.820;2023-05-10T05:57:19;10.95;;;10.35;;
46282;SDS011;32017;43.700;11.820;2023-05-10T05:59:39;9.75;;;9.35;;
46282;SDS011;32017;43.700;11.820;2023-05-10T06:02:02;10.77;;;9.90;;
46282;SDS011;32017;43.700;11.820;2023-05-10T06:04:23;10.52;;;9.93;;
46282;SDS011;32017;43.700;11.820;2023-05-10T06:06:43;8.65;;;8.45;;
46282;SDS011;32017;43.700;11.820;2023-05-10T06:09:03;9.70;;;9.23;;
46282;SDS011;32017;43.700;11.820;2023-05-10T06:11:23;10.25;;;9.55;;
46282;SDS011;32017;43.700;11.820;2023-05-10T06:13:44;8.50;;;8.30;;
46282;SDS011;32017;43.700;11.820;2023-05-10T06:16:05;9.23;;;8.93;;
46282;SDS011;32017;43.700;11.820;2023-05-10T06:18:25;11.05;;;10.55;;
46282;SDS011;32017;43.700;11.820;2023-05-10T06:20:45;9.95;;;9.55;;
46282;SDS011;32017;43.700;11.820;2023-05-10T06:23:05;9.07;;;8.57;;
46282;SDS011;32017;43.700;11.820;2023-05-10T06:25:25;9.55;;;9.05;;
46282;SDS011;32017;43.700;11.820;2023-05-10T06:27:45;8.70;;;8.40;;
46282;SDS011;32017;43.700;11.820;2023-05-10T06:30:11;9.23;;;8.82;;
46282;SDS011;32017;43.700;11.820;2023-05-10T06:32:33;8.65;;;8.23;;
46282;SDS011;32017;43.700;11.820;2023-05-10T06:34:54;8.38;;;8.07;;
46282;SDS011;32017;43.700;11.820;2023-05-10T06:37:14;7.90;;;7.70;;
46282;SDS011;32017;43.700;11.820;2023-05-10T06:39:34;8.73;;;8.32;;
46282;SDS011;32017;43.700;11.820;2023-05-10T06:41:54;9.32;;;8.95;;
46282;SDS011;32017;43.700;11.820;2023-05-10T06:44:14;11.07;;;10.07;;
46282;SDS011;32017;43.700;11.820;2023-05-10T06:46:35;10.57;;;10.05;;
46282;SDS011;32017;43.700;11.820;2023-05-10T06:48:55;10.30;;;9.80;;
46282;SDS011;32017;43.700;11.820;2023-05-10T06:51:15;10.90;;;10.57;;
46282;SDS011;32017;43.700;11.820;2023-05-10T06:53:36;11.23;;;10.73;;
46282;SDS011;32017;43.700;11.820;2023-05-10T06:55:56;11.02;;;10.63;;
46282;SDS011;32017;43.700;11.820;2023-05-10T06:58:17;11.80;;;11.27;;
46282;SDS011;32017;43.700;11.820;2023-05-10T07:00:37;11.15;;;10.45;;
46282;SDS011;32017;43.700;11.820;2023-05-10T07:02:59;10.60;;;10.05;;
46282;SDS011;32017;43.700;11.820;2023-05-10T07:05:20;10.50;;;10.15;;
46282;SDS011;32017;43.700;11.820;2023-05-10T07:07:40;11.70;;;11.00;;
46282;SDS011;32017;43.700;11.820;2023-05-10T07:10:01;11.85;;;11.10;;
46282;SDS011;32017;43.700;11.820;2023-05-10T07:12:22;12.23;;;11.48;;
46282;SDS011;32017;43.700;11.820;2023-05-10T07:14:42;11.75;;;10.77;;
46282;SDS011;32017;43.700;11.820;2023-05-10T07:17:02;10.13;;;9.52;;
46282;SDS011;32017;43.700;11.820;2023-05-10T07:19:22;9.65;;;9.25;;
46282;SDS011;32017;43.700;11.820;2023-05-10T07:21:43;8.40;;;8.15;;
46282;SDS011;32017;43.700;11.820;2023-05-10T07:24:03;8.75;;;8.45;;
46282;SDS011;32017;43.700;11.820;2023-05-10T07:26:23;7.70;;;7.45;;
46282;SDS011;32017;43.700;11.820;2023-05-10T07:28:44;6.57;;;6.38;;
46282;SDS011;32017;43.700;11.820;2023-05-10T07:31:04;5.65;;;5.45;;
46282;SDS011;32017;43.700;11.820;2023-05-10T07:33:25;6.20;;;6.00;;
46282;SDS011;32017;43.700;11.820;2023-05-10T07:35:45;5.97;;;5.72;;
46282;SDS011;32017;43.700;11.820;2023-05-10T07:38:05;4.50;;;4.30;;
46282;SDS011;32017;43.700;11.820;2023-05-10T07:40:25;4.22;;;4.13;;
46282;SDS011;32017;43.700;11.820;2023-05-10T07:42:45;3.47;;;3.38;;
46282;SDS011;32017;43.700;11.820;2023-05-10T07:45:05;3.67;;;3.67;;
46282;SDS011;32017;43.700;11.820;2023-05-10T07:47:25;4.15;;;4.10;;
46282;SDS011;32017;43.700;11.820;2023-05-10T07:49:45;2.90;;;2.83;;
46282;SDS011;32017;43.700;11.820;2023-05-10T07:52:06;2.90;;;2.90;;
46282;SDS011;32017;43.700;11.820;2023-05-10T07:54:25;3.47;;;3.28;;
46282;SDS011;32017;43.700;11.820;2023-05-10T07:56:46;3.20;;;3.08;;
46282;SDS011;32017;43.700;11.820;2023-05-10T07:59:06;3.03;;;2.92;;
46282;SDS011;32017;43.700;11.820;2023-05-10T08:01:26;3.08;;;3.08;;
46282;SDS011;32017;43.700;11.820;2023-05-10T08:03:46;2.90;;;2.90;;
46282;SDS011;32017;43.700;11.820;2023-05-10T08:06:07;3.20;;;3.20;;
46282;SDS011;32017;43.700;11.820;2023-05-10T08:08:27;2.90;;;2.90;;
46282;SDS011;32017;43.700;11.820;2023-05-10T08:10:47;3.72;;;3.63;;
46282;SDS011;32017;43.700;11.820;2023-05-10T08:13:07;4.30;;;4.20;;
46282;SDS011;32017;43.700;11.820;2023-05-10T08:15:28;2.92;;;2.92;;
46282;SDS011;32017;43.700;11.820;2023-05-10T08:17:48;2.63;;;2.63;;
46282;SDS011;32017;43.700;11.820;2023-05-10T08:20:08;3.80;;;3.70;;
46282;SDS011;32017;43.700;11.820;2023-05-10T08:22:29;3.97;;;3.88;;
46282;SDS011;32017;43.700;11.820;2023-05-10T08:24:49;4.63;;;4.43;;
46282;SDS011;32017;43.700;11.820;2023-05-10T08:27:09;3.78;;;3.65;;
46282;SDS011;32017;43.700;11.820;2023-05-10T08:29:29;2.85;;;2.80;;
46282;SDS011;32017;43.700;11.820;2023-05-10T08:32:05;4.18;;;4.03;;
46282;SDS011;32017;43.700;11.820;2023-05-10T08:34:25;3.25;;;3.05;;
46282;SDS011;32017;43.700;11.820;2023-05-10T08:36:46;2.40;;;2.40;;
46282;SDS011;32017;43.700;11.820;2023-05-10T08:39:06;2.65;;;1.95;;
46282;SDS011;32017;43.700;11.820;2023-05-10T08:41:38;2.13;;;1.90;;
46282;SDS011;32017;43.700;11.820;2023-05-10T08:43:59;2.15;;;1.75;;
46282;SDS011;32017;43.700;11.820;2023-05-10T08:46:23;3.22;;;1.65;;
46282;SDS011;32017;43.700;11.820;2023-05-10T08:48:47;2.17;;;2.08;;
46282;SDS011;32017;43.700;11.820;2023-05-10T08:51:07;2.50;;;2.13;;
46282;SDS011;32017;43.700;11.820;2023-05-10T08:53:29;2.10;;;2.10;;
46282;SDS011;32017;43.700;11.820;2023-05-10T08:55:51;1.45;;;1.45;;
46282;SDS011;32017;43.700;11.820;2023-05-10T08:58:11;1.52;;;1.50;;
46282;SDS011;32017;43.700;11.820;2023-05-10T09:00:31;1.77;;;1.38;;
46282;SDS011;32017;43.700;11.820;2023-05-10T09:02:51;1.58;;;1.20;;
46282;SDS011;32017;43.700;11.820;2023-05-10T09:05:12;1.33;;;1.33;;
46282;SDS011;32017;43.700;11.820;2023-05-10T09:07:35;1.20;;;1.20;;
46282;SDS011;32017;43.700;11.820;2023-05-10T09:09:55;1.58;;;1.48;;
46282;SDS011;32017;43.700;11.820;2023-05-10T09:12:16;1.20;;;1.20;;
46282;SDS011;32017;43.700;11.820;2023-05-10T09:14:36;1.30;;;1.30;;
46282;SDS011;32017;43.700;11.820;2023-05-10T09:16:56;1.30;;;1.30;;
46282;SDS011;32017;43.700;11.820;2023-05-10T09:19:16;1.40;;;1.40;;
46282;SDS011;32017;43.700;11.820;2023-05-10T09:21:37;1.30;;;1.30;;
46282;SDS011;32017;43.700;11.820;2023-05-10T09:23:57;1.40;;;1.38;;
46282;SDS011;32017;43.700;11.820;2023-05-10T09:26:23;1.23;;;1.23;;
46282;SDS011;32017;43.700;11.820;2023-05-10T09:28:53;1.45;;;1.45;;
46282;SDS011;32017;43.700;11.820;2023-05-10T09:31:13;3.08;;;1.90;;
46282;SDS011;32017;43.700;11.820;2023-05-10T09:33:43;1.55;;;1.55;;
46282;SDS011;32017;43.700;11.820;2023-05-10T09:36:06;1.50;;;1.40;;
46282;SDS011;32017;43.700;11.820;2023-05-10T09:38:28;1.63;;;1.50;;
46282;SDS011;32017;43.700;11.820;2023-05-10T09:40:51;1.50;;;1.40;;
46282;SDS011;32017;43.700;11.820;2023-05-10T09:43:13;2.45;;;1.50;;
46282;SDS011;32017;43.700;11.820;2023-05-10T09:45:34;1.38;;;1.38;;
46282;SDS011;32017;43.700;11.820;2023-05-10T09:47:57;2.38;;;1.85;;
46282;SDS011;32017;43.700;11.820;2023-05-10T09:50:18;1.60;;;1.50;;
46282;SDS011;32017;43.700;11.820;2023-05-10T09:52:50;1.70;;;1.60;;
46282;SDS011;32017;43.700;11.820;2023-05-10T09:55:10;1.65;;;1.65;;
46282;SDS011;32017;43.700;11.820;2023-05-10T09:57:31;2.10;;;2.00;;
46282;SDS011;32017;43.700;11.820;2023-05-10T09:59:53;1.40;;;1.40;;
46282;SDS011;32017;43.700;11.820;2023-05-10T10:02:13;11.65;;;2.42;;
46282;SDS011;32017;43.700;11.820;2023-05-10T10:04:38;2.05;;;1.55;;
46282;SDS011;32017;43.700;11.820;2023-05-10T10:07:03;1.80;;;1.80;;
46282;SDS011;32017;43.700;11.820;2023-05-10T10:09:23;1.45;;;1.45;;
46282;SDS011;32017;43.700;11.820;2023-05-10T10:11:44;1.30;;;1.30;;
46282;SDS011;32017;43.700;11.820;2023-05-10T10:14:05;1.48;;;1.48;;
46282;SDS011;32017;43.700;11.820;2023-05-10T10:16:26;1.27;;;1.25;;
46282;SDS011;32017;43.700;11.820;2023-05-10T10:18:47;1.30;;;1.30;;
46282;SDS011;32017;43.700;11.820;2023-05-10T10:21:07;1.73;;;1.63;;
46282;SDS011;32017;43.700;11.820;2023-05-10T10:23:28;1.58;;;1.48;;
46282;SDS011;32017;43.700;11.820;2023-05-10T10:25:48;1.95;;;1.77;;
46282;SDS011;32017;43.700;11.820;2023-05-10T10:30:41;1.75;;;1.60;;
46282;SDS011;32017;43.700;11.820;2023-05-10T10:33:24;2.08;;;1.90;;
46282;SDS011;32017;43.700;11.820;2023-05-10T10:35:48;5.05;;;1.80;;
46282;SDS011;32017;43.700;11.820;2023-05-10T10:38:09;1.67;;;1.67;;
46282;SDS011;32017;43.700;11.820;2023-05-10T10:40:32;1.63;;;1.63;;
46282;SDS011;32017;43.700;11.820;2023-05-10T10:42:54;1.55;;;1.42;;
46282;SDS011;32017;43.700;11.820;2023-05-10T10:45:15;1.23;;;1.23;;
46282;SDS011;32017;43.700;11.820;2023-05-10T10:47:35;1.40;;;1.40;;
46282;SDS011;32017;43.700;11.820;2023-05-10T10:54:50;1.17;;;1.17;;
46282;SDS011;32017;43.700;11.820;2023-05-10T10:57:19;2.25;;;1.20;;
46282;SDS011;32017;43.700;11.820;2023-05-10T10:59:43;1.20;;;1.20;;
46282;SDS011;32017;43.700;11.820;2023-05-10T11:02:03;1.20;;;1.20;;
46282;SDS011;32017;43.700;11.820;2023-05-10T11:04:24;1.30;;;1.30;;
46282;SDS011;32017;43.700;11.820;2023-05-10T11:06:44;1.42;;;1.42;;
46282;SDS011;32017;43.700;11.820;2023-05-10T11:09:06;1.52;;;1.52;;
46282;SDS011;32017;43.700;11.820;2023-05-10T11:11:26;1.75;;;1.65;;
46282;SDS011;32017;43.700;11.820;2023-05-10T11:13:47;2.53;;;1.60;;
46282;SDS011;32017;43.700;11.820;2023-05-10T11:18:40;1.88;;;1.77;;
46282;SDS011;32017;43.700;11.820;2023-05-10T11:21:11;3.55;;;1.80;;
46282;SDS011;32017;43.700;11.820;2023-05-10T11:23:32;2.15;;;2.00;;
46282;SDS011;32017;43.700;11.820;2023-05-10T11:25:53;1.50;;;1.40;;
46282;SDS011;32017;43.700;11.820;2023-05-10T11:28:13;1.75;;;1.75;;
46282;SDS011;32017;43.700;11.820;2023-05-10T11:30:34;1.80;;;1.33;;
46282;SDS011;32017;43.700;11.820;2023-05-10T11:32:54;1.33;;;1.20;;
46282;SDS011;32017;43.700;11.820;2023-05-10T11:35:14;1.50;;;1.50;;
46282;SDS011;32017;43.700;11.820;2023-05-10T11:37:34;1.83;;;1.83;;
46282;SDS011;32017;43.700;11.820;2023-05-10T11:39:55;1.88;;;1.80;;
46282;SDS011;32017;43.700;11.820;2023-05-10T11:42:15;2.28;;;2.15;;
46282;SDS011;32017;43.700;11.820;2023-05-10T11:44:35;1.30;;;1.30;;
46282;SDS011;32017;43.700;11.820;2023-05-10T11:46:57;1.20;;;1.20;;
46282;SDS011;32017;43.700;11.820;2023-05-10T11:49:18;1.73;;;1.63;;
46282;SDS011;32017;43.700;11.820;2023-05-10T11:51:38;1.40;;;1.33;;
46282;SDS011;32017;43.700;11.820;2023-05-10T11:54:09;1.42;;;1.42;;
46282;SDS011;32017;43.700;11.820;2023-05-10T11:56:29;1.45;;;1.45;;
46282;SDS011;32017;43.700;11.820;2023-05-10T11:58:56;1.60;;;1.60;;
46282;SDS011;32017;43.700;11.820;2023-05-10T12:01:16;1.50;;;1.50;;
46282;SDS011;32017;43.700;11.820;2023-05-10T12:03:36;1.85;;;1.60;;
46282;SDS011;32017;43.700;11.820;2023-05-10T12:05:57;1.42;;;1.42;;
46282;SDS011;32017;43.700;11.820;2023-05-10T12:08:25;1.42;;;1.35;;
46282;SDS011;32017;43.700;11.820;2023-05-10T12:10:45;1.55;;;1.33;;
46282;SDS011;32017;43.700;11.820;2023-05-10T12:13:10;3.63;;;1.25;;
46282;SDS011;32017;43.700;11.820;2023-05-10T12:15:31;1.33;;;1.33;;
46282;SDS011;32017;43.700;11.820;2023-05-10T12:17:51;1.50;;;1.40;;
46282;SDS011;32017;43.700;11.820;2023-05-10T12:22:38;1.60;;;1.48;;
46282;SDS011;32017;43.700;11.820;2023-05-10T12:24:58;1.58;;;1.30;;
46282;SDS011;32017;43.700;11.820;2023-05-10T12:27:19;1.20;;;1.20;;
46282;SDS011;32017;43.700;11.820;2023-05-10T12:29:41;1.40;;;1.40;;
46282;SDS011;32017;43.700;11.820;2023-05-10T12:32:03;1.13;;;1.13;;
46282;SDS011;32017;43.700;11.820;2023-05-10T12:34:29;1.77;;;1.30;;
46282;SDS011;32017;43.700;11.820;2023-05-10T12:36:50;1.67;;;1.40;;
46282;SDS011;32017;43.700;11.820;2023-05-10T12:39:11;1.27;;;1.27;;
46282;SDS011;32017;43.700;11.820;2023-05-10T12:41:31;1.35;;;1.35;;
46282;SDS011;32017;43.700;11.820;2023-05-10T12:43:52;1.33;;;1.30;;
46282;SDS011;32017;43.700;11.820;2023-05-10T12:46:12;1.25;;;1.25;;
46282;SDS011;32017;43.700;11.820;2023-05-10T12:48:33;1.70;;;1.70;;
46282;SDS011;32017;43.700;11.820;2023-05-10T12:50:54;1.48;;;1.40;;
46282;SDS011;32017;43.700;11.820;2023-05-10T12:53:14;1.17;;;1.17;;
46282;SDS011;32017;43.700;11.820;2023-05-10T12:55:35;1.20;;;1.20;;
46282;SDS011;32017;43.700;11.820;2023-05-10T12:57:55;1.92;;;1.20;;
46282;SDS011;32017;43.700;11.820;2023-05-10T13:00:15;1.38;;;1.27;;
46282;SDS011;32017;43.700;11.820;2023-05-10T13:02:36;1.17;;;1.17;;
46282;SDS011;32017;43.700;11.820;2023-05-10T13:04:56;1.50;;;1.35;;
46282;SDS011;32017;43.700;11.820;2023-05-10T13:07:16;1.50;;;1.50;;
46282;SDS011;32017;43.700;11.820;2023-05-10T13:09:37;1.20;;;1.20;;
46282;SDS011;32017;43.700;11.820;2023-05-10T13:11:57;1.70;;;1.70;;
46282;SDS011;32017;43.700;11.820;2023-05-10T13:14:17;1.40;;;1.40;;
46282;SDS011;32017;43.700;11.820;2023-05-10T13:16:39;1.60;;;1.50;;
46282;SDS011;32017;43.700;11.820;2023-05-10T13:18:59;1.20;;;1.20;;
46282;SDS011;32017;43.700;11.820;2023-05-10T13:21:19;41.58;;;4.80;;
46282;SDS011;32017;43.700;11.820;2023-05-10T13:23:40;1.00;;;1.00;;
46282;SDS011;32017;43.700;11.820;2023-05-10T13:26:00;3.70;;;1.75;;
46282;SDS011;32017;43.700;11.820;2023-05-10T13:28:20;1.10;;;1.08;;
46282;SDS011;32017;43.700;11.820;2023-05-10T13:30:41;1.10;;;1.10;;
46282;SDS011;32017;43.700;11.820;2023-05-10T13:33:01;1.00;;;1.00;;
46282;SDS011;32017;43.700;11.820;2023-05-10T13:35:21;1.30;;;1.30;;
46282;SDS011;32017;43.700;11.820;2023-05-10T13:37:41;3.55;;;3.35;;
46282;SDS011;32017;43.700;11.820;2023-05-10T13:40:01;1.50;;;1.50;;
46282;SDS011;32017;43.700;11.820;2023-05-10T13:42:23;1.20;;;1.20;;
46282;SDS011;32017;43.700;11.820;2023-05-10T13:44:43;1.50;;;1.50;;
46282;SDS011;32017;43.700;11.820;2023-05-10T13:47:03;1.08;;;1.08;;
46282;SDS011;32017;43.700;11.820;2023-05-10T13:49:23;1.33;;;1.20;;
46282;SDS011;32017;43.700;11.820;2023-05-10T13:51:43;1.20;;;1.20;;
46282;SDS011;32017;43.700;11.820;2023-05-10T13:54:03;1.38;;;1.20;;
46282;SDS011;32017;43.700;11.820;2023-05-10T13:56:24;2.03;;;2.03;;
46282;SDS011;32017;43.700;11.820;2023-05-10T13:58:44;1.70;;;1.60;;
46282;SDS011;32017;43.700;11.820;2023-05-10T14:01:04;2.83;;;2.63;;
46282;SDS011;32017;43.700;11.820;2023-05-10T14:03:24;1.60;;;1.60;;
46282;SDS011;32017;43.700;11.820;2023-05-10T14:05:44;1.33;;;1.33;;
46282;SDS011;32017;43.700;11.820;2023-05-10T14:08:04;1.40;;;1.40;;
46282;SDS011;32017;43.700;11.820;2023-05-10T14:10:25;1.38;;;1.38;;
46282;SDS011;32017;43.700;11.820;2023-05-10T14:12:45;1.30;;;1.30;;
46282;SDS011;32017;43.700;11.820;2023-05-10T14:15:05;1.30;;;1.30;;
46282;SDS011;32017;43.700;11.820;2023-05-10T14:17:25;2.47;;;1.20;;
46282;SDS011;32017;43.700;11.820;2023-05-10T14:19:46;1.90;;;1.90;;
46282;SDS011;32017;43.700;11.820;2023-05-10T14:22:06;1.40;;;1.40;;